createdAt,value
2023-01-08T00:02:21.885Z,95643.59
2023-01-08T00:04:48.889Z,95637.97
2023-01-08T00:07:15.983Z,95640.34
2023-01-08T00:09:43.739Z,95621.75
2023-01-08T00:12:10.960Z,95643.41
2023-01-08T00:14:37.921Z,95651.84
2023-01-08T00:17:04.666Z,95641.91
2023-01-08T00:19:31.575Z,95639.09
2023-01-08T00:21:58.297Z,95635.09
2023-01-08T00:24:25.243Z,95637.81
2023-01-08T00:26:52.019Z,95635.00
2023-01-08T00:29:18.932Z,95633.00
2023-01-08T00:31:45.700Z,95639.22
2023-01-08T00:34:12.572Z,95635.69
2023-01-08T00:36:39.318Z,95644.72
2023-01-08T00:39:06.208Z,95642.84
2023-01-08T00:41:33.039Z,95644.59
2023-01-08T00:43:59.841Z,95640.41
2023-01-08T00:46:26.544Z,95638.53
2023-01-08T00:48:53.345Z,95648.81
2023-01-08T00:51:20.066Z,95642.88
2023-01-08T00:53:46.896Z,95637.81
2023-01-08T00:56:13.526Z,95642.78
2023-01-08T00:58:40.413Z,95639.41
2023-01-08T01:01:14.981Z,95642.59
2023-01-08T01:03:42.804Z,95641.88
2023-01-08T01:06:11.964Z,95649.75
2023-01-08T01:08:38.927Z,95650.69
2023-01-08T01:11:10.720Z,95625.94
2023-01-08T01:13:37.585Z,95646.34
2023-01-08T01:16:04.600Z,95652.00
2023-01-08T01:18:32.025Z,95623.44
2023-01-08T01:20:59.845Z,95647.69
2023-01-08T01:23:26.562Z,95644.75
2023-01-08T01:25:56.001Z,95639.78
2023-01-08T01:28:23.397Z,95639.19
2023-01-08T01:30:57.216Z,95639.09
2023-01-08T01:33:23.929Z,95642.16
2023-01-08T01:35:59.547Z,95633.34
2023-01-08T01:38:26.468Z,95639.53
2023-01-08T01:40:53.207Z,95632.53
2023-01-08T01:43:43.773Z,95628.50
2023-01-08T01:46:33.466Z,95630.56
2023-01-08T01:49:06.106Z,95629.91
2023-01-08T01:51:34.981Z,95619.97
2023-01-08T01:54:04.024Z,95626.22
2023-01-08T01:56:32.510Z,95625.28
2023-01-08T01:58:59.697Z,95618.41
2023-01-08T02:01:28.901Z,95621.16
2023-01-08T02:03:55.777Z,95612.53
2023-01-08T02:06:32.597Z,95625.03
2023-01-08T02:09:09.551Z,95621.34
2023-01-08T02:12:17.850Z,95618.44
2023-01-08T02:14:52.409Z,95617.03
2023-01-08T02:17:44.169Z,95626.09
2023-01-08T02:20:30.488Z,95623.25
2023-01-08T02:23:09.999Z,95611.28
2023-01-08T02:25:55.368Z,95614.75
2023-01-08T02:28:24.238Z,95612.31
2023-01-08T02:30:50.966Z,95605.88
2023-01-08T02:33:17.843Z,95607.44
2023-01-08T02:36:22.122Z,95606.00
2023-01-08T02:39:03.168Z,95602.13
2023-01-08T02:42:06.599Z,95595.59
2023-01-08T02:44:51.478Z,95604.47
2023-01-08T02:47:44.902Z,95599.97
2023-01-08T02:50:23.976Z,95601.13
2023-01-08T02:53:01.185Z,95596.53
2023-01-08T02:55:30.911Z,95596.66
2023-01-08T02:57:58.724Z,95599.50
2023-01-08T03:00:26.656Z,95599.69
2023-01-08T03:03:20.042Z,95596.56
2023-01-08T03:05:51.691Z,95614.63
2023-01-08T03:08:19.684Z,95601.81
2023-01-08T03:10:53.245Z,95610.78
2023-01-08T03:13:44.295Z,95607.50
2023-01-08T03:16:21.095Z,95583.94
2023-01-08T03:18:54.113Z,95599.94
2023-01-08T03:21:22.442Z,95610.09
2023-01-08T03:23:51.040Z,95598.69
2023-01-08T03:26:23.024Z,95611.69
2023-01-08T03:28:53.509Z,95604.16
2023-01-08T03:31:23.079Z,95608.47
2023-01-08T03:33:50.501Z,95608.00
2023-01-08T03:36:24.166Z,95615.63
2023-01-08T03:38:59.547Z,95602.91
2023-01-08T03:41:31.215Z,95606.56
2023-01-08T03:43:58.146Z,95604.47
2023-01-08T03:46:33.087Z,95603.63
2023-01-08T03:49:02.322Z,95591.44
2023-01-08T03:51:39.656Z,95593.22
2023-01-08T03:54:09.409Z,95589.38
2023-01-08T03:56:36.102Z,95599.03
2023-01-08T03:59:02.917Z,95602.38
2023-01-08T04:01:29.695Z,95605.81
2023-01-08T04:03:56.518Z,95598.59
2023-01-08T04:06:23.425Z,95609.22
2023-01-08T04:08:50.553Z,95605.69
2023-01-08T04:11:17.362Z,95602.84
2023-01-08T04:13:44.278Z,95606.84
2023-01-08T04:16:12.083Z,95607.78
2023-01-08T04:18:38.905Z,95603.06
2023-01-08T04:21:05.999Z,95610.91
2023-01-08T04:23:33.061Z,95592.94
2023-01-08T04:25:59.853Z,95609.53
2023-01-08T04:28:26.552Z,95613.66
2023-01-08T04:30:53.343Z,95619.22
2023-01-08T04:33:20.241Z,95614.69
2023-01-08T04:35:46.986Z,95626.84
2023-01-08T04:38:13.831Z,95623.06
2023-01-08T04:40:40.567Z,95616.13
2023-01-08T04:43:07.257Z,95618.09
2023-01-08T04:45:34.423Z,95613.72
2023-01-08T04:48:01.561Z,95608.13
2023-01-08T04:50:28.364Z,95604.69
2023-01-08T04:52:58.445Z,95605.13
2023-01-08T04:55:25.265Z,95612.72
2023-01-08T04:57:52.183Z,95619.69
2023-01-08T05:00:18.849Z,95618.47
2023-01-08T05:02:45.651Z,95621.28
2023-01-08T05:05:14.134Z,95626.66
2023-01-08T05:07:40.782Z,95619.44
2023-01-08T05:10:08.053Z,95622.06
2023-01-08T05:12:34.856Z,95626.19
2023-01-08T05:15:01.757Z,95620.59
2023-01-08T05:17:28.593Z,95631.78
2023-01-08T05:19:55.347Z,95625.97
2023-01-08T05:22:22.116Z,95619.34
2023-01-08T05:24:48.805Z,95600.81
2023-01-08T05:27:15.486Z,95624.31
2023-01-08T05:29:42.227Z,95631.91
2023-01-08T05:32:16.233Z,95619.47
2023-01-08T05:34:44.519Z,95613.28
2023-01-08T05:37:11.830Z,95628.44
2023-01-08T05:39:38.668Z,95629.22
2023-01-08T05:42:05.480Z,95634.72
2023-01-08T05:44:32.205Z,95626.06
2023-01-08T05:46:59.018Z,95628.59
2023-01-08T05:49:27.059Z,95634.50
2023-01-08T05:51:53.950Z,95634.72
2023-01-08T05:54:20.704Z,95624.28
2023-01-08T05:56:47.615Z,95617.88
2023-01-08T05:59:14.659Z,95630.66
2023-01-08T06:01:44.763Z,95629.88
2023-01-08T06:04:11.515Z,95632.25
2023-01-08T06:06:38.331Z,95635.06
2023-01-08T06:09:05.151Z,95631.09
2023-01-08T06:11:31.923Z,95633.94
2023-01-08T06:13:58.663Z,95631.69
2023-01-08T06:16:25.507Z,95637.28
2023-01-08T06:18:52.237Z,95641.56
2023-01-08T06:21:19.092Z,95635.06
2023-01-08T06:23:45.934Z,95639.09
2023-01-08T06:26:12.920Z,95632.69
2023-01-08T06:28:39.679Z,95645.03
2023-01-08T06:31:06.598Z,95641.03
2023-01-08T06:33:33.437Z,95633.84
2023-01-08T06:36:05.357Z,95645.81
2023-01-08T06:38:33.750Z,95654.06
2023-01-08T06:41:11.269Z,95655.81
2023-01-08T06:43:39.015Z,95651.81
2023-01-08T06:46:08.104Z,95653.97
2023-01-08T06:48:35.439Z,95664.56
2023-01-08T06:51:04.528Z,95658.44
2023-01-08T06:53:31.545Z,95655.19
2023-01-08T06:55:58.897Z,95660.50
2023-01-08T06:58:27.989Z,95654.41
2023-01-08T07:00:54.906Z,95651.13
2023-01-08T07:03:21.775Z,95660.97
2023-01-08T07:05:50.796Z,95661.97
2023-01-08T07:08:18.646Z,95665.16
2023-01-08T07:10:45.784Z,95655.19
2023-01-08T07:13:12.912Z,95663.91
2023-01-08T07:15:40.968Z,95670.78
2023-01-08T07:18:09.387Z,95665.75
2023-01-08T07:20:36.731Z,95669.13
2023-01-08T07:23:10.065Z,95665.09
2023-01-08T07:25:38.014Z,95671.34
2023-01-08T07:28:04.842Z,95672.97
2023-01-08T07:30:31.631Z,95668.63
2023-01-08T07:33:02.096Z,95665.72
2023-01-08T07:35:30.398Z,95672.66
2023-01-08T07:37:58.355Z,95677.34
2023-01-08T07:40:25.216Z,95673.53
2023-01-08T07:42:59.400Z,95669.66
2023-01-08T07:45:28.994Z,95675.41
2023-01-08T07:47:59.286Z,95678.50
2023-01-08T07:50:27.016Z,95670.56
2023-01-08T07:52:57.543Z,95677.22
2023-01-08T07:55:24.535Z,95679.91
2023-01-08T07:57:51.235Z,95680.97
2023-01-08T08:00:18.328Z,95677.13
2023-01-08T08:02:45.168Z,95674.38
2023-01-08T08:05:12.435Z,95680.13
2023-01-08T08:07:39.244Z,95673.41
2023-01-08T08:10:06.756Z,95677.22
2023-01-08T08:12:33.514Z,95678.47
2023-01-08T08:15:00.414Z,95663.50
2023-01-08T08:17:27.289Z,95672.06
2023-01-08T08:19:54.588Z,95678.91
2023-01-08T08:22:21.306Z,95674.31
2023-01-08T08:24:48.100Z,95672.88
2023-01-08T08:27:14.829Z,95667.97
2023-01-08T08:29:41.464Z,95678.31
2023-01-08T08:32:08.287Z,95677.72
2023-01-08T08:34:35.011Z,95670.41
2023-01-08T08:37:01.864Z,95663.59
2023-01-08T08:39:28.688Z,95678.22
2023-01-08T08:41:55.387Z,95670.63
2023-01-08T08:44:22.285Z,95674.44
2023-01-08T08:46:49.072Z,95673.41
2023-01-08T08:49:16.054Z,95661.34
2023-01-08T08:51:42.833Z,95658.69
2023-01-08T08:54:11.246Z,95659.13
2023-01-08T08:56:37.963Z,95654.38
2023-01-08T08:59:04.729Z,95652.06
2023-01-08T09:01:31.879Z,95657.63
2023-01-08T09:03:58.754Z,95617.69
2023-01-08T09:06:27.715Z,95657.69
2023-01-08T09:08:55.167Z,95649.53
2023-01-08T09:11:22.180Z,95647.44
2023-01-08T09:13:49.004Z,95638.34
2023-01-08T09:16:16.366Z,95633.16
2023-01-08T09:18:43.142Z,95637.44
2023-01-08T09:21:09.962Z,95640.63
2023-01-08T09:23:36.921Z,95633.63
2023-01-08T09:26:05.450Z,95632.19
2023-01-08T09:28:34.005Z,95631.06
2023-01-08T09:31:02.843Z,95623.16
2023-01-08T09:33:30.368Z,95616.50
2023-01-08T09:35:57.558Z,95619.28
2023-01-08T09:38:24.379Z,95609.34
2023-01-08T09:41:12.731Z,95597.88
2023-01-08T09:43:43.951Z,95601.06
2023-01-08T09:46:12.485Z,95592.47
2023-01-08T09:48:41.374Z,95591.53
2023-01-08T09:51:17.489Z,95585.31
2023-01-08T09:53:45.246Z,95583.16
2023-01-08T09:56:17.554Z,95571.59
2023-01-08T09:58:50.442Z,95557.91
2023-01-08T10:01:21.020Z,95572.59
2023-01-08T10:03:58.358Z,95561.53
2023-01-08T10:06:25.579Z,95558.38
2023-01-08T10:08:52.583Z,95554.38
2023-01-08T10:11:20.751Z,95555.72
2023-01-08T10:13:53.649Z,95549.47
2023-01-08T10:16:30.526Z,95550.50
2023-01-08T10:19:00.100Z,95543.16
2023-01-08T10:21:33.145Z,95539.97
2023-01-08T10:24:01.326Z,95536.28
2023-01-08T10:26:31.480Z,95533.66
2023-01-08T10:29:18.520Z,95526.81
2023-01-08T10:31:54.459Z,95534.16
2023-01-08T10:34:26.892Z,95521.00
2023-01-08T10:36:55.776Z,95516.25
2023-01-08T10:39:31.096Z,95498.28
2023-01-08T10:42:05.634Z,95497.22
2023-01-08T10:44:33.548Z,95498.03
2023-01-08T10:47:01.331Z,95502.50
2023-01-08T10:49:39.168Z,95492.25
2023-01-08T10:52:06.280Z,95475.91
2023-01-08T10:54:39.192Z,95489.88
2023-01-08T10:57:27.705Z,95482.22
2023-01-08T10:59:56.063Z,95463.78
2023-01-08T11:02:38.550Z,95480.91
2023-01-08T11:05:10.937Z,95475.34
2023-01-08T11:07:40.488Z,95474.06
2023-01-08T11:10:21.601Z,95477.22
2023-01-08T11:12:54.235Z,95473.53
2023-01-08T11:15:28.019Z,95472.97
2023-01-08T11:17:54.901Z,95467.19
2023-01-08T11:20:30.830Z,95470.34
2023-01-08T11:23:26.729Z,95469.56
2023-01-08T11:26:11.376Z,95462.97
2023-01-08T11:29:07.984Z,95459.81
2023-01-08T11:31:44.203Z,95462.19
2023-01-08T11:34:34.724Z,95461.88
2023-01-08T11:37:14.109Z,95450.28
2023-01-08T11:39:41.099Z,95454.78
2023-01-08T11:42:27.878Z,95432.72
2023-01-08T11:45:35.382Z,95440.66
2023-01-08T11:48:28.379Z,95439.19
2023-01-08T11:51:27.279Z,95424.91
2023-01-08T11:54:05.974Z,95424.84
2023-01-08T11:56:51.292Z,95418.34
2023-01-08T11:59:18.090Z,95421.94
2023-01-08T12:01:59.898Z,95414.41
2023-01-08T12:04:54.418Z,95409.91
2023-01-08T12:07:33.128Z,95403.72
2023-01-08T12:10:13.146Z,95398.94
2023-01-08T12:12:58.264Z,95384.94
2023-01-08T12:15:35.981Z,95390.75
2023-01-08T12:18:42.428Z,95377.72
2023-01-08T12:21:34.996Z,95369.22
2023-01-08T12:24:30.497Z,95368.78
2023-01-08T12:27:09.486Z,95370.47
2023-01-08T12:29:38.924Z,95365.75
2023-01-08T12:32:44.071Z,95360.88
2023-01-08T12:35:18.746Z,95365.28
2023-01-08T12:37:58.742Z,95354.38
2023-01-08T12:40:36.053Z,95352.38
2023-01-08T12:43:11.782Z,95344.63
2023-01-08T12:45:46.453Z,95347.91
2023-01-08T12:48:23.675Z,95342.09
2023-01-08T12:50:53.484Z,95342.38
2023-01-08T12:53:42.977Z,95343.97
2023-01-08T12:56:21.271Z,95335.84
2023-01-08T12:59:11.408Z,95334.50
2023-01-08T13:02:16.283Z,95335.03
2023-01-08T13:04:45.934Z,95326.75
2023-01-08T13:07:28.060Z,95322.38
2023-01-08T13:10:05.900Z,95317.28
2023-01-08T13:12:40.437Z,95320.16
2023-01-08T13:15:08.427Z,95320.19
2023-01-08T13:17:37.622Z,95315.19
2023-01-08T13:20:07.040Z,95324.66
2023-01-08T13:22:36.844Z,95323.56
2023-01-08T13:25:15.816Z,95315.72
2023-01-08T13:27:44.533Z,95324.28
2023-01-08T13:30:50.083Z,95310.56
2023-01-08T13:33:39.959Z,95318.63
2023-01-08T13:36:24.936Z,95328.59
2023-01-08T13:39:06.317Z,95325.16
2023-01-08T13:41:41.590Z,95331.38
2023-01-08T13:44:26.758Z,95333.44
2023-01-08T13:46:56.581Z,95331.50
2023-01-08T13:49:35.533Z,95339.75
2023-01-08T13:52:03.180Z,95328.56
2023-01-08T13:54:39.159Z,95346.19
2023-01-08T13:57:13.435Z,95343.25
2023-01-08T13:59:47.946Z,95340.56
2023-01-08T14:02:44.658Z,95334.81
2023-01-08T14:05:29.623Z,95342.97
2023-01-08T14:07:58.927Z,95340.94
2023-01-08T14:10:27.765Z,95339.16
2023-01-08T14:13:05.408Z,95344.00
2023-01-08T14:15:34.809Z,95338.31
2023-01-08T14:18:04.718Z,95341.31
2023-01-08T14:20:40.865Z,95328.19
2023-01-08T14:23:18.360Z,95335.84
2023-01-08T14:25:49.485Z,95337.28
2023-01-08T14:28:22.019Z,95332.03
2023-01-08T14:30:51.309Z,95313.28
2023-01-08T14:33:20.842Z,95334.91
2023-01-08T14:35:50.863Z,95335.09
2023-01-08T14:38:18.571Z,95325.38
2023-01-08T14:40:51.513Z,95322.00
2023-01-08T14:43:21.029Z,95317.22
2023-01-08T14:45:52.504Z,95323.34
2023-01-08T14:48:28.488Z,95320.81
2023-01-08T14:51:20.620Z,95323.63
2023-01-08T14:53:56.020Z,95322.41
2023-01-08T14:56:36.155Z,95326.69
2023-01-08T14:59:11.883Z,95321.16
2023-01-08T15:01:39.360Z,95321.59
2023-01-08T15:04:14.738Z,95321.94
2023-01-08T15:06:41.911Z,95321.97
2023-01-08T15:09:29.116Z,95318.03
2023-01-08T15:12:04.094Z,95316.47
2023-01-08T15:14:33.509Z,95329.63
2023-01-08T15:17:09.868Z,95331.00
2023-01-08T15:19:52.091Z,95328.44
2023-01-08T15:22:22.647Z,95328.00
2023-01-08T15:24:59.570Z,95327.41
2023-01-08T15:27:27.591Z,95326.56
2023-01-08T15:30:00.898Z,95329.06
2023-01-08T15:32:31.357Z,95322.97
2023-01-08T15:34:58.591Z,95324.88
2023-01-08T15:37:25.457Z,95323.81
2023-01-08T15:39:52.519Z,95313.47
2023-01-08T15:42:48.769Z,95332.63
2023-01-08T15:45:18.689Z,95327.53
2023-01-08T15:47:45.771Z,95330.88
2023-01-08T15:50:13.406Z,95330.28
2023-01-08T15:52:42.911Z,95332.09
2023-01-08T15:55:19.366Z,95331.28
2023-01-08T15:57:47.421Z,95334.38
2023-01-08T16:00:16.569Z,95324.13
2023-01-08T16:02:46.908Z,95315.00
2023-01-08T16:05:15.163Z,95305.78
2023-01-08T16:07:42.064Z,95331.06
2023-01-08T16:10:09.723Z,95325.63
2023-01-08T16:12:36.720Z,95328.81
2023-01-08T16:15:04.303Z,95336.50
2023-01-08T16:17:31.742Z,95334.53
2023-01-08T16:19:58.512Z,95319.72
2023-01-08T16:22:25.426Z,95334.25
2023-01-08T16:24:52.362Z,95319.84
2023-01-08T16:27:19.224Z,95327.75
2023-01-08T16:29:45.857Z,95333.66
2023-01-08T16:32:12.634Z,95336.69
2023-01-08T16:34:39.407Z,95339.78
2023-01-08T16:37:06.572Z,95334.06
2023-01-08T16:39:33.581Z,95344.06
2023-01-08T16:42:00.355Z,95335.78
2023-01-08T16:44:28.758Z,95335.19
2023-01-08T16:46:56.040Z,95335.44
2023-01-08T16:49:22.915Z,95336.25
2023-01-08T16:51:49.875Z,95333.69
2023-01-08T16:54:16.903Z,95338.53
2023-01-08T16:56:43.633Z,95338.03
2023-01-08T16:59:22.294Z,95336.44
2023-01-08T17:01:49.942Z,95336.31
2023-01-08T17:04:17.013Z,95334.38
2023-01-08T17:06:43.736Z,95346.88
2023-01-08T17:09:11.784Z,95347.75
2023-01-08T17:11:39.104Z,95347.16
2023-01-08T17:14:05.859Z,95350.72
2023-01-08T17:16:32.801Z,95341.28
2023-01-08T17:18:59.776Z,95358.63
2023-01-08T17:21:26.499Z,95355.38
2023-01-08T17:23:53.328Z,95349.03
2023-01-08T17:26:20.089Z,95361.13
2023-01-08T17:28:47.379Z,95361.84
2023-01-08T17:31:18.983Z,95359.44
2023-01-08T17:33:50.332Z,95357.34
2023-01-08T17:36:18.489Z,95365.34
2023-01-08T17:38:47.097Z,95372.72
2023-01-08T17:41:33.814Z,95365.56
2023-01-08T17:44:01.341Z,95355.06
2023-01-08T17:46:28.383Z,95374.66
2023-01-08T17:48:55.191Z,95378.94
2023-01-08T17:51:21.916Z,95351.38
2023-01-08T17:53:48.812Z,95381.41
2023-01-08T17:56:15.574Z,95387.72
2023-01-08T17:58:43.392Z,95383.72
2023-01-08T18:01:12.942Z,95379.63
2023-01-08T18:03:39.677Z,95386.97
2023-01-08T18:06:11.514Z,95376.56
2023-01-08T18:08:39.228Z,95391.50
2023-01-08T18:11:08.742Z,95386.09
2023-01-08T18:13:36.681Z,95397.03
2023-01-08T18:16:05.498Z,95403.53
2023-01-08T18:18:33.031Z,95398.22
2023-01-08T18:20:59.718Z,95402.84
2023-01-08T18:23:27.275Z,95404.97
2023-01-08T18:25:54.072Z,95407.78
2023-01-08T18:28:21.043Z,95405.84
2023-01-08T18:30:47.853Z,95408.25
2023-01-08T18:33:15.630Z,95409.88
2023-01-08T18:35:42.564Z,95404.72
2023-01-08T18:38:18.570Z,95415.88
2023-01-08T18:40:46.909Z,95397.31
2023-01-08T18:43:13.632Z,95405.28
2023-01-08T18:45:41.370Z,95405.09
2023-01-08T18:48:11.971Z,95417.19
2023-01-08T18:50:40.467Z,95409.38
2023-01-08T18:53:09.026Z,95418.03
2023-01-08T18:55:37.311Z,95416.56
2023-01-08T18:58:04.757Z,95418.28
2023-01-08T19:00:31.932Z,95424.59
2023-01-08T19:02:58.753Z,95419.69
2023-01-08T19:05:25.842Z,95417.38
2023-01-08T19:07:52.604Z,95415.94
2023-01-08T19:10:19.914Z,95418.03
2023-01-08T19:12:46.709Z,95418.50
2023-01-08T19:15:13.622Z,95416.47
2023-01-08T19:17:40.292Z,95430.22
2023-01-08T19:20:08.037Z,95440.34
2023-01-08T19:22:34.937Z,95446.84
2023-01-08T19:25:01.804Z,95438.31
2023-01-08T19:27:28.526Z,95437.34
2023-01-08T19:29:55.396Z,95437.66
2023-01-08T19:32:22.165Z,95444.25
2023-01-08T19:34:49.016Z,95450.28
2023-01-08T19:37:15.762Z,95441.97
2023-01-08T19:39:42.546Z,95438.00
2023-01-08T19:42:34.133Z,95445.50
2023-01-08T19:45:01.137Z,95441.78
2023-01-08T19:47:28.202Z,95447.84
2023-01-08T19:49:55.009Z,95446.44
2023-01-08T19:52:22.735Z,95431.97
2023-01-08T19:54:49.610Z,95449.03
2023-01-08T19:57:16.403Z,95457.94
2023-01-08T19:59:43.397Z,95454.28
2023-01-08T20:02:10.455Z,95447.47
2023-01-08T20:04:42.667Z,95457.94
2023-01-08T20:07:10.392Z,95444.28
2023-01-08T20:09:38.502Z,95447.31
2023-01-08T20:12:06.208Z,95449.06
2023-01-08T20:14:34.299Z,95453.81
2023-01-08T20:17:01.840Z,95450.16
2023-01-08T20:19:29.091Z,95456.16
2023-01-08T20:21:57.349Z,95447.91
2023-01-08T20:24:24.678Z,95447.31
2023-01-08T20:26:51.716Z,95449.81
2023-01-08T20:29:18.474Z,95448.91
2023-01-08T20:31:45.446Z,95450.06
2023-01-08T20:34:15.454Z,95452.06
2023-01-08T20:36:44.544Z,95447.91
2023-01-08T20:39:15.103Z,95455.94
2023-01-08T20:41:49.817Z,95445.22
2023-01-08T20:44:28.117Z,95455.69
2023-01-08T20:46:54.959Z,95454.75
2023-01-08T20:49:21.835Z,95456.28
2023-01-08T20:51:57.838Z,95462.59
2023-01-08T20:54:26.244Z,95463.84
2023-01-08T20:56:55.767Z,95460.91
2023-01-08T20:59:24.157Z,95460.78
2023-01-08T21:01:51.311Z,95466.78
2023-01-08T21:04:18.949Z,95471.66
2023-01-08T21:06:46.063Z,95473.44
2023-01-08T21:09:14.141Z,95462.03
2023-01-08T21:11:41.331Z,95466.59
2023-01-08T21:14:08.385Z,95479.47
2023-01-08T21:16:35.596Z,95458.75
2023-01-08T21:19:03.315Z,95461.34
2023-01-08T21:21:33.534Z,95474.03
2023-01-08T21:24:04.547Z,95478.13
2023-01-08T21:26:33.908Z,95480.66
2023-01-08T21:29:03.131Z,95475.28
2023-01-08T21:31:30.139Z,95473.50
2023-01-08T21:33:58.906Z,95472.53
2023-01-08T21:36:28.534Z,95483.13
2023-01-08T21:38:59.979Z,95480.13
2023-01-08T21:41:46.647Z,95471.94
2023-01-08T21:44:34.661Z,95483.59
2023-01-08T21:47:02.855Z,95482.44
2023-01-08T21:49:29.719Z,95483.31
2023-01-08T21:52:15.232Z,95480.69
2023-01-08T21:54:42.282Z,95475.59
2023-01-08T21:57:10.170Z,95481.94
2023-01-08T21:59:37.199Z,95484.94
2023-01-08T22:02:05.258Z,95476.84
2023-01-08T22:04:32.946Z,95492.19
2023-01-08T22:06:59.731Z,95497.09
2023-01-08T22:09:26.693Z,95487.50
2023-01-08T22:11:55.899Z,95479.78
2023-01-08T22:14:22.634Z,95483.47
2023-01-08T22:16:49.410Z,95475.19
2023-01-08T22:19:16.293Z,95463.38
2023-01-08T22:21:43.088Z,95451.44
2023-01-08T22:24:10.116Z,95476.53
2023-01-08T22:26:37.003Z,95466.66
2023-01-08T22:29:05.972Z,95466.66
2023-01-08T22:31:33.280Z,95452.09
2023-01-08T22:34:00.248Z,95444.88
2023-01-08T22:36:27.213Z,95458.38
2023-01-08T22:38:54.210Z,95455.59
2023-01-08T22:41:23.230Z,95465.66
2023-01-08T22:43:55.894Z,95462.13
2023-01-08T22:46:24.576Z,95465.81
2023-01-08T22:48:51.730Z,95448.06
2023-01-08T22:51:27.481Z,95451.72
2023-01-08T22:53:55.653Z,95438.72
2023-01-08T22:56:23.317Z,95450.25
2023-01-08T22:58:50.721Z,95450.94
2023-01-08T23:01:20.442Z,95450.25
2023-01-08T23:03:55.768Z,95437.00
2023-01-08T23:06:26.095Z,95443.81
2023-01-08T23:08:53.989Z,95443.94
2023-01-08T23:11:23.108Z,95441.53
2023-01-08T23:13:51.226Z,95436.22
2023-01-08T23:16:21.857Z,95436.66
2023-01-08T23:18:49.757Z,95437.97
2023-01-08T23:21:19.561Z,95435.13
2023-01-08T23:23:47.053Z,95433.22
2023-01-08T23:26:28.790Z,95431.22
2023-01-08T23:28:57.020Z,95433.13
2023-01-08T23:31:26.977Z,95428.72
2023-01-08T23:33:54.492Z,95427.34
2023-01-08T23:36:22.012Z,95441.47
2023-01-08T23:38:53.519Z,95427.66
2023-01-08T23:41:23.109Z,95432.69
2023-01-08T23:43:50.314Z,95418.28
2023-01-08T23:46:17.759Z,95428.50
2023-01-08T23:48:44.548Z,95428.81
2023-01-08T23:51:11.553Z,95433.16
2023-01-08T23:53:38.588Z,95420.81
2023-01-08T23:56:05.626Z,95417.94
2023-01-08T23:58:32.392Z,95420.22
